This is the latest recevied weather packets stored in our database for station/object JE7UPL-13. If no packets are shown the sender has not sent any weather packets the latest 10 day(s).
| Time | Temp. | Humidity | Pressure | Rain* | Wind** | Luminosity | Snow |
|---|---|---|---|---|---|---|---|
| 1788597905 | 21.67° C | 65% | 1011.9 hPa | 0 mm | - | - | - |
| 1788597006 | 22.22° C | 62% | 1011.7 hPa | 0 mm | - | - | - |
| 1788596106 | 22.78° C | 58% | 1011.6 hPa | 0 mm | - | - | - |
| 1788595206 | 23.33° C | 54% | 1011.6 hPa | 0 mm | - | - | - |
| 1788594306 | 24.44° C | 52% | 1011.4 hPa | 0 mm | - | - | - |
| 1788593406 | 24.44° C | 52% | 1011.6 hPa | 0 mm | - | - | - |
| 1788592505 | 24.44° C | 52% | 1011.4 hPa | 0 mm | - | - | - |
| 1788591606 | 25° C | 52% | 1011.3 hPa | 0 mm | - | - | - |
| 1788590705 | 25° C | 52% | 1011 hPa | 0 mm | - | - | - |
| 1788589806 | 25° C | 50% | 1010.9 hPa | 0 mm | - | - | - |
| 1788588906 | 25° C | 51% | 1011 hPa | 0 mm | - | - | - |
| 1788563706 | 22.22° C | 65% | 1011.3 hPa | 0 mm | - | - | - |
| 1788560105 | 21.67° C | 74% | 1010.8 hPa | 0 mm | - | - | - |
| 1788559207 | 21.67° C | 81% | 1011 hPa | 0 mm | - | - | - |
| 1788556506 | 18.89° C | 95% | 1010.4 hPa | 0 mm | - | - | - |
| 1788551106 | 16.11° C | 93% | 1009.6 hPa | 0 mm | - | - | - |
| 1788550206 | 16.11° C | 93% | 1009.6 hPa | 0 mm | - | - | - |
| 1788547506 | 16.67° C | 93% | 1009.7 hPa | 0 mm | - | - | - |
| 1788546606 | 16.11° C | 92% | 1009.6 hPa | 0 mm | - | - | - |
| 1788545705 | 16.67° C | 92% | 1009.4 hPa | 0 mm | - | - | - |
| 1788536706 | 18.33° C | 86% | 1009.5 hPa | 0 mm | - | - | - |
| 1788535806 | 18.33° C | 86% | 1009.4 hPa | 0 mm | - | - | - |
| 1788534905 | 18.33° C | 86% | 1009.6 hPa | 0 mm | - | - | - |
| 1788532206 | 18.89° C | 84% | 1009.7 hPa | 0 mm | - | - | - |
| 1788530406 | 18.89° C | 83% | 1009.7 hPa | 0 mm | - | - | - |
* Rain latest hour (hover to see other rain measurements)
** Current wind speed in m/s (hover to see current wind gust speed)